Masatepe, Nicaragua

10:07 PM CST on July 30, 2016 (GMT -0600)
Los Alemanes | | Change Station

Elev 1398 ft 12.06 °N, 86.31 °W | Updated 3 minutes ago

Scattered Clouds
Scattered Clouds
74.8 °F
Feels Like 73 °F
N
3.2
Wind Variable Wind from ESE

Today
High -- | Low -- °F
--% Chance of Precip.
Yesterday
High -- | Low -- °F
Precip. -- in
Pressure 29.89 in
Visibility 6.2 miles
Clouds Scattered Clouds 2200 ft
Heat Index 73 °F
Dew Point 72 °F
Humidity 92%
Rainfall 0.03 in
Snow Depth Not available.
5:31 AM 6:10 PM
Waning Crescent, 9% visible
METAR MNMG 310400Z 12008KT 9999 SCT022 27/23 Q1012 A29.89 NOSIG
Pressure 29.89 in
Visibility 6.2 miles
Clouds Scattered Clouds 2200 ft
Heat Index 73 °F
Dew Point 72 °F
Humidity 92%
Rainfall 0.03 in
Snow Depth Not available.
5:31 AM 6:10 PM
Waning Crescent, 9% visible
METAR MNMG 310400Z 12008KT 9999 SCT022 27/23 Q1012 A29.89 NOSIG

10-Day Weather Forecast

No radar image for this location.
×

Almanac

Astronomy

Jul. 30, 2016 Rise Set
Actual Time
Civil Twilight
Nautical Twilight
Astronomical Twilight
Moon
Length of Visible Light
Length of Day
Tomorrow will be .
, % of the Moon is Illuminated

Today's Extremes

Country Highs Country Lows

Community

WunderPhotos

Upload Photos

1,928,745 photos uploaded!

WunderBlog® & News

Nearby

Air Quality

  Air Quality AQ Index Pollutant
Not available.

Snow Depth

Station Depth Elevation

Earthquake Activity

City Distance Mag. Time & Date
Minimum magnitude displayed is 2.5.

Coastal Water Temperatures

Place Temperature

Stations

Nearby Weather Stations

Station Location Temp. Windchill Dew Point Humidity Wind Precip. Elev Updated Type